createdAt,value
2023-02-25T00:02:07.692Z,94.30
2023-02-25T00:04:35.494Z,93.80
2023-02-25T00:07:03.809Z,93.60
2023-02-25T00:09:31.882Z,93.90
2023-02-25T00:11:59.918Z,93.90
2023-02-25T00:14:28.174Z,93.60
2023-02-25T00:16:58.805Z,94.40
2023-02-25T00:19:27.957Z,94.00
2023-02-25T00:21:55.873Z,94.10
2023-02-25T00:24:23.740Z,94.10
2023-02-25T00:26:52.478Z,93.90
2023-02-25T00:29:20.088Z,92.70
2023-02-25T00:31:50.511Z,93.50
2023-02-25T00:34:18.094Z,92.60
2023-02-25T00:36:46.050Z,93.70
2023-02-25T00:39:14.012Z,94.00
2023-02-25T00:41:41.748Z,94.30
2023-02-25T00:44:09.352Z,93.90
2023-02-25T00:46:38.751Z,92.90
2023-02-25T00:49:06.349Z,93.10
2023-02-25T00:51:34.304Z,93.40
2023-02-25T00:54:01.842Z,93.80
2023-02-25T00:56:29.408Z,93.30
2023-02-25T00:58:58.773Z,93.00
2023-02-25T01:01:33.719Z,93.00
2023-02-25T01:04:01.562Z,93.70
2023-02-25T01:06:30.976Z,95.40
2023-02-25T01:09:00.699Z,93.50
2023-02-25T01:11:33.652Z,93.70
2023-02-25T01:14:09.766Z,94.00
2023-02-25T01:16:38.358Z,94.40
2023-02-25T01:19:20.757Z,93.60
2023-02-25T01:21:52.022Z,93.60
2023-02-25T01:24:26.201Z,94.10
2023-02-25T01:26:57.948Z,94.10
2023-02-25T01:29:52.503Z,93.90
2023-02-25T01:32:23.775Z,94.10
2023-02-25T01:34:51.577Z,93.30
2023-02-25T01:37:19.851Z,93.60
2023-02-25T01:39:55.148Z,93.50
2023-02-25T01:42:23.869Z,94.40
2023-02-25T01:45:19.463Z,94.20
2023-02-25T01:47:52.465Z,94.20
2023-02-25T01:50:22.682Z,94.30
2023-02-25T01:52:51.265Z,94.00
2023-02-25T01:55:19.156Z,94.60
2023-02-25T01:57:47.209Z,94.30
2023-02-25T02:00:24.503Z,94.40
2023-02-25T02:02:52.451Z,93.70
2023-02-25T02:05:21.220Z,94.00
2023-02-25T02:07:48.721Z,93.70
2023-02-25T02:10:17.622Z,94.10
2023-02-25T02:12:47.176Z,93.50
2023-02-25T02:15:15.706Z,94.30
2023-02-25T02:17:59.588Z,94.60
2023-02-25T02:20:33.266Z,94.80
2023-02-25T02:23:19.403Z,94.40
2023-02-25T02:25:51.658Z,93.70
2023-02-25T02:28:19.245Z,94.70
2023-02-25T02:31:09.521Z,93.70
2023-02-25T02:34:28.448Z,93.90
2023-02-25T02:37:03.865Z,94.30
2023-02-25T02:39:49.533Z,93.40
2023-02-25T02:42:47.756Z,93.00
2023-02-25T02:45:36.120Z,94.20
2023-02-25T02:48:08.729Z,94.50
2023-02-25T02:50:41.824Z,94.20
2023-02-25T02:53:35.232Z,94.10
2023-02-25T02:56:07.025Z,94.00
2023-02-25T02:58:50.580Z,94.10
2023-02-25T03:01:28.495Z,94.20
2023-02-25T03:04:02.259Z,93.70
2023-02-25T03:06:42.449Z,94.30
2023-02-25T03:09:18.581Z,94.50
2023-02-25T03:11:46.331Z,94.80
2023-02-25T03:14:15.330Z,94.10
2023-02-25T03:17:15.413Z,93.70
2023-02-25T03:19:50.386Z,94.80
2023-02-25T03:22:27.855Z,94.20
2023-02-25T03:25:01.513Z,94.40
2023-02-25T03:27:36.501Z,94.30
2023-02-25T03:30:12.661Z,94.10
2023-02-25T03:32:43.348Z,94.30
2023-02-25T03:35:12.963Z,93.80
2023-02-25T03:37:43.383Z,94.40
2023-02-25T03:40:14.380Z,93.90
2023-02-25T03:42:54.199Z,93.90
2023-02-25T03:45:23.038Z,93.60
2023-02-25T03:47:51.278Z,93.60
2023-02-25T03:50:59.315Z,93.60
2023-02-25T03:53:28.879Z,94.30
2023-02-25T03:56:08.345Z,94.10
2023-02-25T03:58:38.441Z,93.40
2023-02-25T04:01:09.957Z,93.50
2023-02-25T04:03:37.634Z,93.90
2023-02-25T04:06:05.626Z,93.90
2023-02-25T04:08:33.103Z,93.70
2023-02-25T04:11:00.641Z,94.40
2023-02-25T04:13:28.223Z,94.00
2023-02-25T04:15:55.770Z,94.30
2023-02-25T04:18:24.950Z,93.70
2023-02-25T04:20:52.506Z,94.40
2023-02-25T04:23:19.968Z,93.90
2023-02-25T04:25:47.538Z,93.90
2023-02-25T04:28:15.085Z,94.60
2023-02-25T04:30:43.096Z,94.00
2023-02-25T04:33:13.706Z,93.90
2023-02-25T04:35:41.647Z,94.20
2023-02-25T04:38:09.428Z,93.50
2023-02-25T04:40:37.624Z,94.10
2023-02-25T04:43:05.163Z,94.20
2023-02-25T04:45:32.722Z,93.40
2023-02-25T04:48:00.286Z,93.80
2023-02-25T04:50:28.008Z,93.30
2023-02-25T04:52:55.578Z,94.70
2023-02-25T04:55:22.963Z,93.70
2023-02-25T04:57:50.441Z,93.50
2023-02-25T05:00:24.220Z,93.20
2023-02-25T05:02:52.015Z,93.90
2023-02-25T05:05:19.666Z,93.70
2023-02-25T05:07:47.181Z,93.20
2023-02-25T05:10:15.704Z,93.10
2023-02-25T05:12:43.165Z,93.70
2023-02-25T05:15:11.721Z,93.50
2023-02-25T05:17:39.271Z,93.40
2023-02-25T05:20:11.939Z,93.50
2023-02-25T05:22:43.197Z,93.20
2023-02-25T05:25:11.322Z,93.10
2023-02-25T05:27:39.000Z,93.50
2023-02-25T05:30:07.189Z,93.40
2023-02-25T05:32:35.401Z,93.40
2023-02-25T05:35:03.260Z,93.10
2023-02-25T05:37:32.298Z,93.50
2023-02-25T05:39:59.858Z,94.40
2023-02-25T05:42:28.545Z,94.50
2023-02-25T05:44:56.033Z,93.80
2023-02-25T05:47:23.533Z,93.20
2023-02-25T05:49:50.871Z,93.10
2023-02-25T05:52:18.317Z,93.80
2023-02-25T05:54:45.693Z,93.30
2023-02-25T05:57:13.108Z,93.20
2023-02-25T05:59:40.507Z,93.40
2023-02-25T06:02:08.825Z,93.10
2023-02-25T06:04:36.402Z,94.10
2023-02-25T06:07:04.327Z,93.40
2023-02-25T06:09:32.165Z,93.50
2023-02-25T06:16:40.613Z,94.20
2023-02-25T06:19:09.180Z,93.90
2023-02-25T06:21:36.847Z,93.50
2023-02-25T06:24:05.739Z,93.30
2023-02-25T06:26:35.502Z,93.30
2023-02-25T06:29:03.596Z,92.90
2023-02-25T06:31:31.063Z,93.20
2023-02-25T06:33:58.442Z,93.20
2023-02-25T06:36:26.542Z,93.10
2023-02-25T06:38:54.283Z,93.90
2023-02-25T06:41:23.539Z,93.50
2023-02-25T06:43:52.505Z,94.10
2023-02-25T06:46:22.655Z,93.50
2023-02-25T06:48:50.399Z,94.10
2023-02-25T06:51:18.202Z,93.50
2023-02-25T06:53:47.722Z,93.30
2023-02-25T06:56:16.559Z,94.20
2023-02-25T06:58:44.203Z,94.10
2023-02-25T07:01:14.136Z,93.10
2023-02-25T07:03:43.591Z,94.00
2023-02-25T07:06:12.130Z,93.60
2023-02-25T07:08:39.518Z,93.90
2023-02-25T07:11:25.912Z,93.60
2023-02-25T07:13:53.438Z,94.40
2023-02-25T07:16:21.044Z,94.00
2023-02-25T07:18:48.463Z,93.70
2023-02-25T07:21:16.181Z,94.00
2023-02-25T07:23:44.300Z,93.50
2023-02-25T07:26:13.525Z,93.70
2023-02-25T07:28:41.454Z,94.00
2023-02-25T07:31:18.510Z,93.30
2023-02-25T07:33:46.715Z,94.10
2023-02-25T07:36:15.270Z,93.60
2023-02-25T07:38:42.939Z,93.70
2023-02-25T07:41:12.566Z,94.10
2023-02-25T07:43:40.674Z,94.00
2023-02-25T07:46:08.776Z,94.80
2023-02-25T07:48:36.558Z,95.10
2023-02-25T07:51:06.497Z,94.60
2023-02-25T07:53:34.299Z,94.60
2023-02-25T07:56:02.050Z,94.10
2023-02-25T07:58:29.584Z,94.10
2023-02-25T08:01:00.294Z,94.60
2023-02-25T08:03:30.396Z,95.20
2023-02-25T08:05:59.529Z,94.30
2023-02-25T08:08:27.021Z,94.00
2023-02-25T08:10:54.583Z,94.70
2023-02-25T08:13:26.693Z,93.50
2023-02-25T08:15:54.186Z,93.60
2023-02-25T08:22:57.102Z,94.00
2023-02-25T08:25:25.130Z,93.00
2023-02-25T08:27:53.198Z,93.00
2023-02-25T08:50:57.221Z,94.10
2023-02-25T08:53:24.619Z,94.30
2023-02-25T08:55:53.852Z,93.30
2023-02-25T08:58:23.153Z,93.70
2023-02-25T09:05:33.049Z,94.20
2023-02-25T09:12:30.384Z,94.20
2023-02-25T09:14:58.276Z,93.20
2023-02-25T09:17:25.988Z,93.30
2023-02-25T09:21:15.648Z,93.20
2023-02-25T09:28:20.038Z,93.80
2023-02-25T09:30:47.923Z,93.50
2023-02-25T09:33:18.487Z,93.10
2023-02-25T09:35:46.079Z,93.00
2023-02-25T09:38:13.546Z,92.80
2023-02-25T09:40:45.483Z,92.80
2023-02-25T09:43:21.089Z,93.40
2023-02-25T09:45:50.994Z,94.50
2023-02-25T09:48:28.844Z,94.20
2023-02-25T09:51:18.577Z,94.40
2023-02-25T09:53:52.682Z,93.20
2023-02-25T09:56:26.774Z,92.70
2023-02-25T09:58:58.397Z,93.10
2023-02-25T10:01:39.358Z,92.70
2023-02-25T10:05:30.417Z,92.60
2023-02-25T10:12:04.154Z,92.50
2023-02-25T10:23:32.192Z,93.70
2023-02-25T10:26:13.228Z,94.10
2023-02-25T10:28:43.351Z,94.10
2023-02-25T10:31:18.799Z,94.00
2023-02-25T10:33:51.962Z,93.80
2023-02-25T10:36:36.420Z,93.20
2023-02-25T10:39:04.498Z,93.60
2023-02-25T10:41:32.056Z,93.00
2023-02-25T10:43:59.499Z,92.90
2023-02-25T10:46:46.333Z,92.80
2023-02-25T10:49:23.572Z,93.30
2023-02-25T10:56:20.131Z,93.70
2023-02-25T10:59:04.808Z,93.50
2023-02-25T11:01:40.078Z,93.80
2023-02-25T11:04:14.070Z,93.30
2023-02-25T11:06:43.507Z,93.60
2023-02-25T11:09:35.319Z,92.80
2023-02-25T11:12:08.726Z,92.40
2023-02-25T11:14:38.119Z,92.30
2023-02-25T11:17:08.599Z,91.40
2023-02-25T11:19:40.096Z,91.40
2023-02-25T11:22:23.669Z,92.40
2023-02-25T11:25:00.694Z,92.00
2023-02-25T11:27:41.212Z,92.60
2023-02-25T11:30:20.438Z,93.30
2023-02-25T11:32:53.925Z,92.50
2023-02-25T11:35:35.736Z,92.20
2023-02-25T11:38:35.656Z,92.30
2023-02-25T11:41:03.888Z,92.90
2023-02-25T11:43:51.020Z,91.90
2023-02-25T11:46:31.118Z,92.10
2023-02-25T11:49:06.098Z,92.20
2023-02-25T11:51:47.158Z,90.70
2023-02-25T11:55:03.035Z,91.60
2023-02-25T11:57:58.607Z,91.90
2023-02-25T12:00:41.261Z,91.70
2023-02-25T12:07:47.806Z,91.20
2023-02-25T12:10:59.491Z,90.70
2023-02-25T12:13:50.532Z,90.50
2023-02-25T12:16:29.241Z,91.00
2023-02-25T12:19:34.332Z,91.00
2023-02-25T12:22:14.647Z,90.60
2023-02-25T12:25:10.543Z,90.00
2023-02-25T12:32:01.679Z,87.90
2023-02-25T12:34:54.105Z,88.20
2023-02-25T12:37:47.072Z,87.90
2023-02-25T12:40:23.312Z,88.00
2023-02-25T12:43:25.171Z,86.10
2023-02-25T12:46:20.940Z,85.70
2023-02-25T12:49:15.416Z,85.50
2023-02-25T12:52:13.175Z,83.00
2023-02-25T12:54:56.958Z,85.30
2023-02-25T12:57:39.722Z,83.70
2023-02-25T13:00:36.750Z,86.40
2023-02-25T13:03:24.526Z,83.30
2023-02-25T13:06:30.488Z,83.70
2023-02-25T13:09:27.564Z,84.70
2023-02-25T13:12:33.051Z,83.90
2023-02-25T13:15:14.397Z,83.20
2023-02-25T13:31:56.901Z,81.10
2023-02-25T13:38:59.875Z,79.10
2023-02-25T13:49:59.639Z,78.20
2023-02-25T13:56:59.959Z,76.40
2023-02-25T13:59:42.803Z,75.50
2023-02-25T14:06:47.438Z,76.00
2023-02-25T14:09:24.044Z,75.60
2023-02-25T14:16:47.615Z,75.10
2023-02-25T14:24:06.661Z,75.30
2023-02-25T14:27:11.598Z,74.40
2023-02-25T14:29:51.200Z,71.70
2023-02-25T14:32:37.520Z,68.10
2023-02-25T14:39:23.775Z,70.30
2023-02-25T14:41:59.963Z,67.10
2023-02-25T14:44:41.053Z,63.80
2023-02-25T14:51:51.403Z,64.60
2023-02-25T14:58:38.131Z,65.90
2023-02-25T15:01:46.867Z,67.00
2023-02-25T15:04:37.498Z,68.20
2023-02-25T15:07:36.805Z,69.40
2023-02-25T15:10:09.707Z,70.80
2023-02-25T15:12:56.035Z,71.50
2023-02-25T15:15:48.698Z,72.60
2023-02-25T15:18:46.846Z,68.70
2023-02-25T15:25:45.475Z,71.70
2023-02-25T15:28:31.527Z,72.10
2023-02-25T15:30:59.062Z,72.50
2023-02-25T15:33:44.310Z,70.60
2023-02-25T15:36:14.729Z,72.20
2023-02-25T15:42:55.889Z,71.10
2023-02-25T15:45:29.770Z,70.90
2023-02-25T15:48:29.185Z,72.20
2023-02-25T15:50:56.951Z,71.40
2023-02-25T15:53:24.785Z,69.70
2023-02-25T15:55:53.305Z,69.40
2023-02-25T15:58:24.013Z,69.70
2023-02-25T16:01:07.097Z,73.00
2023-02-25T16:03:41.884Z,71.60
2023-02-25T16:06:39.113Z,69.20
2023-02-25T16:09:15.652Z,72.20
2023-02-25T16:11:49.635Z,72.60
2023-02-25T16:18:50.901Z,72.10
2023-02-25T16:21:39.140Z,70.80
2023-02-25T16:24:11.585Z,73.10
2023-02-25T16:26:54.076Z,73.00
2023-02-25T16:29:38.396Z,74.40
2023-02-25T16:32:35.028Z,70.10
2023-02-25T16:35:35.453Z,73.00
2023-02-25T16:38:18.016Z,73.00
2023-02-25T16:40:46.193Z,72.90
2023-02-25T16:43:16.861Z,72.10
2023-02-25T16:45:53.642Z,72.40
2023-02-25T16:48:45.693Z,73.60
2023-02-25T16:51:24.808Z,72.40
2023-02-25T16:53:59.849Z,73.50
2023-02-25T16:56:28.893Z,74.00
2023-02-25T16:59:05.636Z,74.90
2023-02-25T17:01:35.800Z,74.40
2023-02-25T17:04:09.435Z,73.80
2023-02-25T17:06:36.859Z,75.00
2023-02-25T17:09:04.196Z,73.00
2023-02-25T17:11:31.716Z,73.40
2023-02-25T17:14:03.996Z,74.00
2023-02-25T17:17:05.407Z,74.80
2023-02-25T17:24:03.042Z,75.80
2023-02-25T17:26:31.528Z,74.60
2023-02-25T17:29:01.379Z,75.80
2023-02-25T17:31:30.530Z,75.60
2023-02-25T17:34:01.010Z,75.40
2023-02-25T17:36:30.521Z,75.80
2023-02-25T17:39:04.674Z,76.20
2023-02-25T17:41:33.553Z,76.90
2023-02-25T17:44:01.383Z,75.00
2023-02-25T17:46:28.964Z,76.50
2023-02-25T17:49:02.694Z,76.10
2023-02-25T17:51:35.870Z,77.70
2023-02-25T17:54:09.377Z,77.40
2023-02-25T17:57:21.121Z,76.40
2023-02-25T18:00:04.780Z,77.90
2023-02-25T18:02:40.920Z,77.30
2023-02-25T18:05:16.696Z,77.80
2023-02-25T18:16:42.032Z,78.00
2023-02-25T18:19:25.774Z,78.10
2023-02-25T18:21:54.060Z,78.40
2023-02-25T18:24:31.239Z,77.30
2023-02-25T18:27:13.827Z,78.90
2023-02-25T18:29:41.411Z,78.10
2023-02-25T18:32:09.109Z,77.50
2023-02-25T18:34:36.959Z,76.40
2023-02-25T18:37:05.265Z,77.90
2023-02-25T18:39:32.792Z,78.80
2023-02-25T18:42:00.402Z,78.40
2023-02-25T18:44:27.933Z,80.30
2023-02-25T18:46:55.590Z,78.70
2023-02-25T18:49:30.643Z,77.50
2023-02-25T18:56:26.624Z,79.80
2023-02-25T18:58:54.727Z,79.40
2023-02-25T19:01:25.569Z,78.80
2023-02-25T19:04:26.062Z,79.70
2023-02-25T19:06:53.484Z,80.40
2023-02-25T19:09:20.827Z,78.30
2023-02-25T19:11:48.273Z,79.10
2023-02-25T19:14:22.527Z,78.50
2023-02-25T19:16:49.950Z,80.30
2023-02-25T19:19:17.489Z,79.20
2023-02-25T19:21:45.215Z,78.80
2023-02-25T19:24:12.811Z,79.20
2023-02-25T19:26:40.529Z,78.90
2023-02-25T19:29:08.137Z,79.70
2023-02-25T19:31:35.677Z,78.40
2023-02-25T19:34:03.410Z,80.20
2023-02-25T19:36:30.862Z,80.50
2023-02-25T19:38:58.326Z,79.90
2023-02-25T19:41:25.852Z,80.10
2023-02-25T19:43:54.134Z,80.80
2023-02-25T19:46:21.821Z,79.70
2023-02-25T19:48:49.256Z,81.60
2023-02-25T19:51:16.647Z,80.10
2023-02-25T19:53:45.546Z,80.20
2023-02-25T19:56:13.056Z,79.70
2023-02-25T19:58:40.499Z,81.10
2023-02-25T20:01:09.014Z,80.70
2023-02-25T20:03:36.736Z,81.00
2023-02-25T20:06:09.277Z,80.40
2023-02-25T20:08:38.629Z,82.20
2023-02-25T20:11:10.408Z,81.40
2023-02-25T20:13:38.670Z,83.10
2023-02-25T20:16:07.237Z,81.60
2023-02-25T20:18:34.782Z,80.90
2023-02-25T20:21:40.053Z,81.90
2023-02-25T20:24:07.932Z,83.00
2023-02-25T20:26:36.346Z,81.50
2023-02-25T20:29:04.112Z,81.70
2023-02-25T20:31:31.817Z,81.40
2023-02-25T20:34:00.181Z,81.70
2023-02-25T20:36:30.939Z,82.90
2023-02-25T20:39:33.829Z,82.50
2023-02-25T20:42:03.479Z,83.50
2023-02-25T20:44:31.359Z,81.70
2023-02-25T20:46:59.177Z,82.20
2023-02-25T20:49:26.956Z,82.50
2023-02-25T20:51:54.792Z,81.80
2023-02-25T20:54:22.362Z,82.10
2023-02-25T20:56:50.412Z,81.90
2023-02-25T20:59:18.346Z,82.70
2023-02-25T21:01:45.827Z,83.50
2023-02-25T21:04:13.372Z,82.40
2023-02-25T21:06:43.321Z,82.10
2023-02-25T21:09:10.853Z,82.70
2023-02-25T21:11:38.431Z,82.60
2023-02-25T21:14:10.311Z,83.00
2023-02-25T21:16:39.108Z,83.10
2023-02-25T21:19:07.612Z,83.70
2023-02-25T21:21:37.386Z,83.40
2023-02-25T21:24:10.270Z,82.90
2023-02-25T21:26:40.333Z,83.70
2023-02-25T21:29:08.858Z,82.20
2023-02-25T21:31:36.684Z,83.50
2023-02-25T21:34:04.739Z,84.50
2023-02-25T21:36:32.545Z,83.20
2023-02-25T21:38:59.975Z,83.00
2023-02-25T21:41:27.835Z,83.80
2023-02-25T21:43:55.987Z,83.80
2023-02-25T21:46:23.838Z,83.50
2023-02-25T21:48:53.259Z,83.90
2023-02-25T21:51:25.907Z,84.30
2023-02-25T21:53:55.411Z,84.30
2023-02-25T22:00:50.745Z,85.90
2023-02-25T22:03:18.149Z,85.80
2023-02-25T22:05:46.775Z,83.90
2023-02-25T22:08:14.868Z,84.60
2023-02-25T22:10:42.386Z,83.80
2023-02-25T22:13:09.783Z,84.30
2023-02-25T22:15:37.277Z,85.10
2023-02-25T22:18:04.796Z,85.00
2023-02-25T22:20:32.280Z,84.40
2023-02-25T22:23:00.131Z,84.70
2023-02-25T22:25:28.845Z,85.00
2023-02-25T22:27:56.371Z,85.70
2023-02-25T22:30:23.745Z,85.00
2023-02-25T22:32:51.288Z,85.70
2023-02-25T22:35:18.728Z,84.60
2023-02-25T22:37:46.116Z,84.70
2023-02-25T22:40:13.713Z,85.70
2023-02-25T22:42:41.566Z,85.70
2023-02-25T22:45:09.377Z,85.90
2023-02-25T22:47:36.955Z,85.40
2023-02-25T22:50:12.380Z,85.20
2023-02-25T22:52:39.823Z,88.30
2023-02-25T22:55:08.018Z,85.20
2023-02-25T22:57:35.387Z,85.70
2023-02-25T23:04:55.526Z,87.50
2023-02-25T23:11:52.089Z,88.10
2023-02-25T23:14:19.464Z,86.20
2023-02-25T23:27:00.954Z,88.50
2023-02-25T23:34:00.220Z,88.90
2023-02-25T23:36:28.389Z,88.70
2023-02-25T23:38:57.988Z,87.70
2023-02-25T23:41:27.558Z,88.00
2023-02-25T23:43:56.966Z,86.70
2023-02-25T23:46:27.443Z,88.10
2023-02-25T23:48:59.923Z,88.40
2023-02-25T23:51:28.361Z,89.40
2023-02-25T23:53:58.357Z,88.70
2023-02-25T23:56:30.152Z,89.10
2023-02-25T23:58:58.315Z,87.80
